createdAt,value
2023-02-09T00:04:02.551Z,7.05
2023-02-09T00:09:07.565Z,6.38
2023-02-09T00:14:15.255Z,7.45
2023-02-09T00:19:17.692Z,7.38
2023-02-09T00:24:20.571Z,7.07
2023-02-09T00:29:23.907Z,6.60
2023-02-09T00:34:25.535Z,6.50
2023-02-09T00:39:26.944Z,7.28
2023-02-09T00:44:28.534Z,6.47
2023-02-09T00:49:30.640Z,7.50
2023-02-09T00:54:32.371Z,6.13
2023-02-09T00:59:35.310Z,6.88
2023-02-09T01:04:40.124Z,7.93
2023-02-09T01:09:41.778Z,7.10
2023-02-09T01:14:43.642Z,6.82
2023-02-09T01:19:45.149Z,7.43
2023-02-09T01:24:46.754Z,7.50
2023-02-09T01:29:48.229Z,6.75
2023-02-09T01:34:54.317Z,6.10
2023-02-09T01:39:56.016Z,5.90
2023-02-09T01:45:06.981Z,6.47
2023-02-09T01:50:08.929Z,6.22
2023-02-09T01:55:14.456Z,7.00
2023-02-09T02:00:19.084Z,6.10
2023-02-09T02:05:24.919Z,6.72
2023-02-09T02:10:27.031Z,5.50
2023-02-09T02:15:42.292Z,6.25
2023-02-09T02:21:07.691Z,6.57
2023-02-09T02:26:09.071Z,5.72
2023-02-09T02:31:39.910Z,6.90
2023-02-09T02:36:55.538Z,6.40
2023-02-09T02:42:33.942Z,7.03
2023-02-09T02:47:39.100Z,5.30
2023-02-09T02:52:46.132Z,5.80
2023-02-09T03:02:55.588Z,5.78
2023-02-09T03:07:57.174Z,6.07
2023-02-09T03:13:23.708Z,6.25
2023-02-09T03:18:33.383Z,6.07
2023-02-09T03:24:03.388Z,5.80
2023-02-09T03:29:06.437Z,5.82
2023-02-09T03:34:09.918Z,6.55
2023-02-09T03:39:11.392Z,5.90
2023-02-09T03:44:28.417Z,5.30
2023-02-09T03:49:33.988Z,5.75
2023-02-09T03:54:35.684Z,5.55
2023-02-09T03:59:37.849Z,5.93
2023-02-09T04:04:39.397Z,6.22
2023-02-09T04:09:40.845Z,6.43
2023-02-09T04:14:42.281Z,6.53
2023-02-09T04:19:43.736Z,6.85
2023-02-09T04:24:45.169Z,6.70
2023-02-09T04:29:46.639Z,6.90
2023-02-09T04:34:48.086Z,5.60
2023-02-09T04:39:49.933Z,6.18
2023-02-09T04:44:51.350Z,6.15
2023-02-09T04:49:52.866Z,6.38
2023-02-09T04:54:54.312Z,6.65
2023-02-09T04:59:55.773Z,5.85
2023-02-09T05:04:57.441Z,6.80
2023-02-09T05:09:58.889Z,6.78
2023-02-09T05:15:00.405Z,5.88
2023-02-09T05:20:02.034Z,4.93
2023-02-09T05:25:03.629Z,6.90
2023-02-09T05:30:05.794Z,6.05
2023-02-09T05:35:08.514Z,6.40
2023-02-09T05:40:10.900Z,6.82
2023-02-09T05:45:12.518Z,7.30
2023-02-09T05:50:13.958Z,6.45
2023-02-09T05:55:15.475Z,5.65
2023-02-09T06:00:17.372Z,7.38
2023-02-09T06:05:20.823Z,6.82
2023-02-09T06:10:22.642Z,6.68
2023-02-09T06:15:24.150Z,6.88
2023-02-09T06:20:25.672Z,5.82
2023-02-09T06:25:27.385Z,7.40
2023-02-09T06:30:28.835Z,6.90
2023-02-09T06:35:30.447Z,6.80
2023-02-09T06:40:31.947Z,7.20
2023-02-09T06:45:33.436Z,6.03
2023-02-09T06:50:36.410Z,7.25
2023-02-09T06:55:38.020Z,6.80
2023-02-09T07:00:39.597Z,6.40
2023-02-09T07:05:41.168Z,7.60
2023-02-09T07:10:42.659Z,6.65
2023-02-09T07:15:50.247Z,6.25
2023-02-09T07:21:01.976Z,9.52
2023-02-09T07:26:08.336Z,8.05
2023-02-09T07:31:13.892Z,9.23
2023-02-09T07:36:17.161Z,8.35
2023-02-09T07:41:23.161Z,7.78
2023-02-09T07:46:27.897Z,6.68
2023-02-09T07:51:29.783Z,6.35
2023-02-09T07:56:47.538Z,6.07
2023-02-09T08:01:49.737Z,8.13
2023-02-09T08:06:53.434Z,7.28
2023-02-09T08:12:05.870Z,8.45
2023-02-09T08:17:20.591Z,7.43
2023-02-09T08:22:24.213Z,7.70
2023-02-09T08:27:26.034Z,6.43
2023-02-09T08:32:32.622Z,8.77
2023-02-09T08:37:36.717Z,7.45
2023-02-09T08:42:38.283Z,8.20
2023-02-09T08:47:44.926Z,6.72
2023-02-09T08:52:46.775Z,8.23
2023-02-09T08:57:50.408Z,8.27
2023-02-09T09:02:53.106Z,8.45
2023-02-09T09:07:54.601Z,9.23
2023-02-09T09:12:58.480Z,7.47
2023-02-09T09:17:59.910Z,9.18
2023-02-09T09:23:02.705Z,8.05
2023-02-09T09:28:04.180Z,7.20
2023-02-09T09:33:08.831Z,7.47
2023-02-09T09:38:10.369Z,8.73
2023-02-09T09:43:28.543Z,9.32
2023-02-09T09:48:49.965Z,7.63
2023-02-09T09:53:54.818Z,9.70
2023-02-09T09:58:59.550Z,8.43
2023-02-09T10:04:02.634Z,8.82
2023-02-09T10:09:22.221Z,7.82
2023-02-09T10:14:23.813Z,9.50
2023-02-09T10:19:27.016Z,9.60
2023-02-09T10:24:39.799Z,9.90
2023-02-09T10:29:41.903Z,8.50
2023-02-09T10:34:50.324Z,10.20
2023-02-09T10:40:16.131Z,9.50
2023-02-09T10:45:34.392Z,8.18
2023-02-09T10:50:59.150Z,7.57
2023-02-09T10:56:14.394Z,10.00
2023-02-09T11:01:26.007Z,9.65
2023-02-09T11:06:33.526Z,9.02
2023-02-09T11:11:37.669Z,10.65
2023-02-09T11:17:10.069Z,8.13
2023-02-09T11:22:28.905Z,8.93
2023-02-09T11:27:51.356Z,9.48
2023-02-09T11:33:06.261Z,9.70
2023-02-09T11:38:51.276Z,9.18
2023-02-09T11:43:57.514Z,9.32
2023-02-09T11:49:13.051Z,10.73
2023-02-09T11:54:24.828Z,8.98
2023-02-09T11:59:57.529Z,9.57
2023-02-09T12:05:03.284Z,10.98
2023-02-09T12:10:34.698Z,9.73
2023-02-09T12:15:48.171Z,9.50
2023-02-09T12:20:57.650Z,9.82
2023-02-09T12:26:11.116Z,10.48
2023-02-09T12:31:27.024Z,11.52
2023-02-09T12:36:31.838Z,10.30
2023-02-09T12:41:42.541Z,10.73
2023-02-09T12:46:43.988Z,10.48
2023-02-09T12:51:52.450Z,10.63
2023-02-09T12:56:57.299Z,11.27
2023-02-09T13:02:12.752Z,11.60
2023-02-09T13:07:41.637Z,11.90
2023-02-09T13:12:50.173Z,10.50
2023-02-09T13:17:52.148Z,12.65
2023-02-09T13:23:05.139Z,12.93
2023-02-09T13:28:16.774Z,8.27
2023-02-09T13:33:41.649Z,12.20
2023-02-09T13:38:45.696Z,13.10
2023-02-09T13:43:47.788Z,15.18
2023-02-09T13:48:53.045Z,13.50
2023-02-09T13:53:59.782Z,12.63
2023-02-09T14:04:16.853Z,12.05
2023-02-09T14:09:24.524Z,13.13
2023-02-09T14:14:59.807Z,12.98
2023-02-09T14:20:01.937Z,14.55
2023-02-09T14:25:23.077Z,14.30
2023-02-09T14:30:34.314Z,12.80
2023-02-09T14:35:41.280Z,14.02
2023-02-09T14:40:43.061Z,15.20
2023-02-09T14:45:48.069Z,13.77
2023-02-09T14:50:55.719Z,14.90
2023-02-09T14:55:58.006Z,14.50
2023-02-09T15:01:02.128Z,15.90
2023-02-09T15:06:05.024Z,13.80
2023-02-09T15:11:42.199Z,15.85
2023-02-09T15:16:44.384Z,19.08
2023-02-09T15:22:05.267Z,16.92
2023-02-09T15:27:24.988Z,17.70
2023-02-09T15:32:26.865Z,16.27
2023-02-09T15:37:33.543Z,18.13
2023-02-09T15:42:54.588Z,17.85
2023-02-09T15:47:59.068Z,15.88
2023-02-09T15:53:10.065Z,18.15
2023-02-09T15:58:35.237Z,20.02
2023-02-09T16:03:37.257Z,19.65
2023-02-09T16:08:39.363Z,18.35
2023-02-09T16:13:40.928Z,18.50
2023-02-09T16:18:42.514Z,19.67
2023-02-09T16:23:46.654Z,19.58
2023-02-09T16:28:48.234Z,19.30
2023-02-09T16:33:51.335Z,19.77
2023-02-09T16:38:55.438Z,19.95
2023-02-09T16:44:00.217Z,19.77
2023-02-09T16:49:02.509Z,19.05
2023-02-09T16:54:10.559Z,22.48
2023-02-09T16:59:13.377Z,21.05
2023-02-09T17:04:15.060Z,20.90
2023-02-09T17:09:16.541Z,20.15
2023-02-09T17:14:18.077Z,22.38
2023-02-09T17:19:22.566Z,19.73
2023-02-09T17:24:24.272Z,19.83
2023-02-09T17:29:25.921Z,21.30
2023-02-09T17:34:28.802Z,20.63
2023-02-09T17:39:30.953Z,22.23
2023-02-09T17:44:45.488Z,22.38
2023-02-09T17:49:48.059Z,23.02
2023-02-09T17:54:51.360Z,22.60
2023-02-09T17:59:52.819Z,23.98
2023-02-09T18:04:54.333Z,22.58
2023-02-09T18:09:57.384Z,23.08
2023-02-09T18:14:59.142Z,22.95
2023-02-09T18:20:00.637Z,24.27
2023-02-09T18:25:02.306Z,25.63
2023-02-09T18:30:04.270Z,24.73
2023-02-09T18:35:06.158Z,29.70
2023-02-09T18:40:08.146Z,30.02
2023-02-09T18:45:12.358Z,26.50
2023-02-09T18:50:20.328Z,28.00
2023-02-09T18:55:26.367Z,26.17
2023-02-09T19:00:29.675Z,26.60
2023-02-09T19:05:33.948Z,26.33
2023-02-09T19:10:36.009Z,25.63
2023-02-09T19:15:39.639Z,28.10
2023-02-09T19:20:43.986Z,27.15
2023-02-09T19:25:46.217Z,19.35
2023-02-09T19:30:47.946Z,25.10
2023-02-09T19:35:57.879Z,26.73
2023-02-09T19:41:10.642Z,21.00
2023-02-09T19:46:13.511Z,21.40
2023-02-09T19:51:16.790Z,20.05
2023-02-09T19:56:21.342Z,20.67
2023-02-09T20:01:23.128Z,23.42
2023-02-09T20:06:29.516Z,23.30
2023-02-09T20:11:33.649Z,23.67
2023-02-09T20:16:35.528Z,23.13
2023-02-09T20:21:37.456Z,20.88
2023-02-09T20:26:39.622Z,22.92
2023-02-09T20:31:41.945Z,22.25
2023-02-09T20:36:46.029Z,21.33
2023-02-09T20:42:07.587Z,23.52
2023-02-09T20:47:09.456Z,23.95
2023-02-09T20:52:11.429Z,24.30
2023-02-09T20:57:13.214Z,23.20
2023-02-09T21:02:16.175Z,23.30
2023-02-09T21:07:20.318Z,22.13
2023-02-09T21:12:23.007Z,22.58
2023-02-09T21:17:24.740Z,24.50
2023-02-09T21:22:26.727Z,22.42
2023-02-09T21:27:29.457Z,22.42
2023-02-09T21:32:35.087Z,22.13
2023-02-09T21:37:42.919Z,23.50
2023-02-09T21:42:44.618Z,25.05
2023-02-09T21:47:46.626Z,21.48
2023-02-09T21:52:52.304Z,22.23
2023-02-09T21:57:56.309Z,25.45
2023-02-09T22:02:57.774Z,22.55
2023-02-09T22:07:59.377Z,22.27
2023-02-09T22:13:10.717Z,23.95
2023-02-09T22:18:13.805Z,24.15
2023-02-09T22:23:15.779Z,22.75
2023-02-09T22:28:17.234Z,21.80
2023-02-09T22:33:20.604Z,23.58
2023-02-09T22:38:22.511Z,22.90
2023-02-09T22:43:24.480Z,23.15
2023-02-09T22:48:26.134Z,22.58
2023-02-09T22:53:27.640Z,21.80
2023-02-09T22:58:30.245Z,20.38
2023-02-09T23:03:33.724Z,23.98
2023-02-09T23:08:35.709Z,22.70
2023-02-09T23:13:37.527Z,22.52
2023-02-09T23:18:39.962Z,24.05
2023-02-09T23:23:42.569Z,21.20
2023-02-09T23:28:44.601Z,21.45
2023-02-09T23:33:46.225Z,23.00
2023-02-09T23:38:53.031Z,19.77
2023-02-09T23:43:54.729Z,21.67
2023-02-09T23:48:57.363Z,23.17
2023-02-09T23:54:01.754Z,23.33
2023-02-09T23:59:07.507Z,23.23
